Time;durP1;ratioP1;P1;durP2;ratioP2;P2;SDS_P1;SDS_P2;PMS_P1;PMS_P2;Temp;Humidity;BMP_temperature;BMP_pressure;BME280_temperature;BME280_humidity;BME280_pressure;Samples;Min_cycle;Max_cycle;Signal;HPM_P1;HPM_P2
2021/05/21 00:02:13;;;;;;;1.93;1.40;;;12.80;69.90;;;;;;5131897;27;20058;-65
2021/05/21 00:04:38;;;;;;;5.10;1.77;;;12.80;69.80;;;;;;5132517;27;20039;-65
2021/05/21 00:07:04;;;;;;;6.40;1.67;;;12.80;69.80;;;;;;5132003;27;20039;-65
2021/05/21 00:09:30;;;;;;;3.80;1.47;;;12.90;69.80;;;;;;5131574;27;20055;-65
2021/05/21 00:11:55;;;;;;;3.13;1.43;;;12.90;69.70;;;;;;5132225;27;20043;-65
2021/05/21 00:14:22;;;;;;;2.70;1.43;;;12.90;69.60;;;;;;5132518;27;20047;-65
2021/05/21 00:16:48;;;;;;;2.90;1.47;;;12.90;69.50;;;;;;5131535;27;20058;-65
2021/05/21 00:19:13;;;;;;;2.27;1.10;;;13.00;69.60;;;;;;5132016;27;20502;-65
2021/05/21 00:21:39;;;;;;;2.70;1.47;;;13.00;69.50;;;;;;5132670;27;20058;-65
2021/05/21 00:49:51;;;;;;;4.87;1.53;;;13.00;70.00;;;;;;5131896;28;20523;-65
2021/05/21 00:52:18;;;;;;;1.47;0.97;;;13.00;69.90;;;;;;5131678;27;20048;-65
2021/05/21 00:54:47;;;;;;;2.53;1.27;;;13.00;70.00;;;;;;5131961;27;20407;-65
2021/05/21 00:57:16;;;;;;;2.17;1.50;;;13.00;70.00;;;;;;5131805;27;20074;-66
2021/05/21 00:59:42;;;;;;;2.37;1.23;;;12.90;70.00;;;;;;5131695;27;20051;-65
2021/05/21 01:02:08;;;;;;;2.87;1.20;;;12.90;70.10;;;;;;5132006;27;20476;-65
2021/05/21 01:04:37;;;;;;;2.67;1.20;;;13.00;70.30;;;;;;5131784;27;20047;-65
2021/05/21 01:07:04;;;;;;;5.80;1.20;;;13.00;70.50;;;;;;5131053;27;20047;-66
2021/05/21 01:09:30;;;;;;;5.00;1.27;;;13.00;70.60;;;;;;5131774;27;20058;-65
2021/05/21 01:11:56;;;;;;;3.50;1.53;;;13.00;70.70;;;;;;5130981;27;20051;-65
2021/05/21 01:14:22;;;;;;;4.60;1.30;;;13.00;70.80;;;;;;5131711;27;20067;-65
2021/05/21 01:16:48;;;;;;;1.83;1.20;;;12.90;70.90;;;;;;5131842;27;20503;-65
2021/05/21 01:19:13;;;;;;;3.90;1.53;;;12.90;70.90;;;;;;5130997;27;20051;-66
2021/05/21 01:21:39;;;;;;;2.73;1.20;;;13.00;71.00;;;;;;5131916;27;20047;-65
2021/05/21 01:24:09;;;;;;;3.30;1.33;;;13.00;71.90;;;;;;5134438;27;20148;-65
2021/05/21 01:26:36;;;;;;;3.87;1.30;;;13.00;71.00;;;;;;5134449;27;20072;-65
2021/05/21 01:29:03;;;;;;;4.37;1.80;;;13.00;71.00;;;;;;5135244;27;20071;-65
2021/05/21 01:31:29;;;;;;;4.67;1.40;;;13.00;71.00;;;;;;5135310;27;20092;-65
2021/05/21 01:33:55;;;;;;;2.07;1.20;;;13.00;71.10;;;;;;5134565;27;20134;-65
2021/05/21 01:36:20;;;;;;;3.43;1.43;;;13.00;71.20;;;;;;5135206;27;20134;-65
2021/05/21 01:39:07;;;;;;;3.77;1.20;;;13.00;71.30;;;;;;5134858;27;20047;-66
2021/05/21 01:41:35;;;;;;;3.23;1.17;;;13.00;71.50;;;;;;5134736;27;20276;-65
2021/05/21 01:44:03;;;;;;;5.47;1.37;;;13.00;71.50;;;;;;5134830;27;20567;-66
2021/05/21 01:46:28;;;;;;;3.40;1.70;;;13.00;71.60;;;;;;5134576;27;20050;-65
2021/05/21 01:48:54;;;;;;;3.67;1.20;;;13.00;71.90;;;;;;5134441;27;20104;-65
2021/05/21 01:51:20;;;;;;;2.80;1.13;;;13.00;72.00;;;;;;5134642;27;20046;-65
2021/05/21 01:53:46;;;;;;;3.83;1.37;;;13.00;72.10;;;;;;5134593;27;20059;-65
2021/05/21 01:56:12;;;;;;;3.70;1.20;;;13.00;72.10;;;;;;5134710;27;20476;-65
2021/05/21 01:58:37;;;;;;;3.73;1.50;;;13.00;72.10;;;;;;5135082;27;20039;-65
2021/05/21 02:01:04;;;;;;;3.13;1.30;;;13.10;72.40;;;;;;5134044;27;20103;-65
2021/05/21 02:03:31;;;;;;;14.50;1.50;;;13.10;72.70;;;;;;5134617;27;20069;-65
2021/05/21 02:05:57;;;;;;;3.43;1.60;;;13.10;73.30;;;;;;5134421;27;20055;-65
2021/05/21 02:08:25;;;;;;;4.03;1.60;;;13.00;74.30;;;;;;5133432;27;20553;-65
2021/05/21 02:10:51;;;;;;;3.57;1.50;;;12.90;75.20;;;;;;5134688;27;20049;-66
2021/05/21 02:13:17;;;;;;;2.43;1.20;;;12.70;76.00;;;;;;5134593;27;20070;-65
2021/05/21 02:15:44;;;;;;;4.27;1.40;;;12.60;77.50;;;;;;5133746;27;20047;-65
2021/05/21 02:18:09;;;;;;;7.33;1.90;;;12.50;77.00;;;;;;5134610;27;20088;-65
2021/05/21 02:20:35;;;;;;;9.97;2.20;;;12.50;77.80;;;;;;5134323;27;20050;-65
2021/05/21 02:23:03;;;;;;;10.23;2.17;;;12.40;78.20;;;;;;5133522;27;20062;-65
2021/05/21 02:25:29;;;;;;;9.60;2.87;;;12.30;79.00;;;;;;5134307;27;20128;-65
2021/05/21 02:27:55;;;;;;;9.20;2.60;;;12.20;79.80;;;;;;5134176;27;20067;-65
2021/05/21 02:30:21;;;;;;;10.67;2.57;;;12.10;80.50;;;;;;5133717;27;20043;-65
2021/05/21 02:32:47;;;;;;;10.47;2.13;;;12.00;82.10;;;;;;5134136;27;20039;-64
2021/05/21 02:35:13;;;;;;;13.77;2.73;;;12.00;81.70;;;;;;5132579;27;20043;-65
2021/05/21 02:37:38;;;;;;;13.43;2.50;;;11.90;82.30;;;;;;5133647;27;20047;-65
2021/05/21 02:40:06;;;;;;;11.33;2.47;;;11.80;82.70;;;;;;5134111;27;20043;-65
2021/05/21 02:42:32;;;;;;;13.33;2.77;;;11.80;83.10;;;;;;5133582;27;20070;-65
2021/05/21 02:44:57;;;;;;;11.63;2.97;;;11.70;83.50;;;;;;5133245;27;20488;-65
2021/05/21 02:47:23;;;;;;;13.00;2.70;;;11.70;84.00;;;;;;5133728;27;20050;-65
2021/05/21 02:49:49;;;;;;;10.37;2.27;;;11.70;84.20;;;;;;5133254;27;20176;-65
2021/05/21 02:52:14;;;;;;;12.07;2.70;;;11.60;84.50;;;;;;5133047;27;20084;-65
2021/05/21 02:54:40;;;;;;;20.57;3.10;;;11.60;84.60;;;;;;5133842;27;20047;-65
2021/05/21 02:57:06;;;;;;;9.63;2.80;;;11.60;84.80;;;;;;5133617;27;20043;-65
2021/05/21 02:59:31;;;;;;;15.43;3.60;;;11.50;85.00;;;;;;5133077;27;20134;-65
2021/05/21 03:01:57;;;;;;;14.83;2.83;;;11.50;85.00;;;;;;5133549;27;20457;-65
2021/05/21 03:04:24;;;;;;;16.50;3.27;;;11.50;85.00;;;;;;5132696;27;20063;-65
2021/05/21 03:06:50;;;;;;;12.80;2.93;;;11.40;84.90;;;;;;5133201;27;20078;-65
2021/05/21 03:09:16;;;;;;;18.67;3.20;;;11.30;85.00;;;;;;5133012;27;20091;-65
2021/05/21 03:11:48;;;;;;;14.53;3.03;;;11.30;85.10;;;;;;5132750;27;20051;-65
2021/05/21 03:14:16;;;;;;;16.83;3.30;;;11.30;85.30;;;;;;5133236;27;20441;-65
2021/05/21 03:16:42;;;;;;;14.03;2.53;;;11.20;85.50;;;;;;5133253;27;20057;-65
2021/05/21 03:19:08;;;;;;;12.40;2.20;;;11.20;85.60;;;;;;5132661;27;20051;-65
2021/05/21 03:21:34;;;;;;;13.37;2.60;;;11.10;85.30;;;;;;5133219;27;20126;-65
2021/05/21 03:23:59;;;;;;;17.27;3.23;;;11.00;85.10;;;;;;5132730;27;20047;-65
2021/05/21 03:26:25;;;;;;;18.57;2.90;;;10.90;85.40;;;;;;5132436;27;20078;-65
2021/05/21 03:28:50;;;;;;;12.30;3.00;;;10.80;85.80;;;;;;5131774;27;20128;-65
2021/05/21 03:31:16;;;;;;;17.40;3.13;;;10.80;85.90;;;;;;5132580;27;20112;-64
2021/05/21 03:33:42;;;;;;;10.20;2.33;;;10.70;86.30;;;;;;5132378;27;20091;-65
2021/05/21 03:36:08;;;;;;;15.50;2.30;;;10.60;86.70;;;;;;5133250;27;20051;-65
2021/05/21 03:38:33;;;;;;;14.73;3.07;;;10.50;86.80;;;;;;5132660;27;20046;-65
2021/05/21 03:40:59;;;;;;;13.83;2.60;;;10.50;87.20;;;;;;5132266;27;20061;-65
2021/05/21 03:43:25;;;;;;;14.17;2.33;;;10.40;87.30;;;;;;5132808;27;20191;-65
2021/05/21 03:45:50;;;;;;;9.50;2.57;;;10.40;87.60;;;;;;5132055;27;20058;-65
2021/05/21 03:48:16;;;;;;;12.20;2.50;;;10.40;87.80;;;;;;5131980;27;20158;-65
2021/05/21 03:50:42;;;;;;;13.13;2.50;;;10.40;88.00;;;;;;5132809;27;20051;-65
2021/05/21 03:53:08;;;;;;;13.83;2.93;;;10.30;87.80;;;;;;5132414;27;20078;-64
2021/05/21 03:55:34;;;;;;;14.63;2.97;;;10.30;88.00;;;;;;5131926;27;20316;-65
2021/05/21 03:58:00;;;;;;;15.33;3.07;;;10.30;88.10;;;;;;5132530;27;20050;-65
2021/05/21 04:00:26;;;;;;;17.13;2.83;;;10.30;88.30;;;;;;5132073;27;20548;-65
2021/05/21 04:02:53;;;;;;;16.50;2.87;;;10.30;88.40;;;;;;5131876;27;20296;-65
2021/05/21 04:05:20;;;;;;;13.87;2.20;;;10.40;88.60;;;;;;5132501;27;20126;-65
2021/05/21 04:07:48;;;;;;;15.80;3.10;;;10.30;88.70;;;;;;5131724;27;20645;-65
2021/05/21 04:10:14;;;;;;;16.00;3.33;;;10.30;88.80;;;;;;5132453;27;20300;-65
2021/05/21 04:12:39;;;;;;;13.17;2.73;;;10.30;88.70;;;;;;5132526;27;20848;-65
2021/05/21 04:15:06;;;;;;;15.50;2.43;;;10.30;88.80;;;;;;5131609;27;20297;-65
2021/05/21 04:17:32;;;;;;;14.53;3.00;;;10.30;88.60;;;;;;5132207;27;20524;-64
2021/05/21 04:19:58;;;;;;;17.23;3.00;;;10.30;88.80;;;;;;5132247;27;20683;-64
2021/05/21 04:22:24;;;;;;;13.90;2.50;;;10.30;88.90;;;;;;5131563;28;20047;-65
2021/05/21 04:24:50;;;;;;;17.00;3.47;;;10.30;88.80;;;;;;5132180;27;20167;-65
2021/05/21 04:27:15;;;;;;;12.90;3.23;;;10.30;88.80;;;;;;5132004;27;20047;-65
2021/05/21 04:29:41;;;;;;;15.17;3.33;;;10.30;88.50;;;;;;5131669;27;20096;-65
2021/05/21 04:32:07;;;;;;;11.47;2.67;;;10.40;88.50;;;;;;5132039;27;20047;-65
2021/05/21 04:34:33;;;;;;;18.87;3.87;;;10.40;88.50;;;;;;5132073;27;20058;-65
2021/05/21 04:37:00;;;;;;;16.53;3.43;;;10.50;88.40;;;;;;5131753;27;20087;-65
2021/05/21 04:39:26;;;;;;;12.23;2.27;;;10.50;88.30;;;;;;5132204;27;20339;-65
2021/05/21 04:41:55;;;;;;;19.53;3.60;;;10.50;87.90;;;;;;5131862;27;20324;-65
2021/05/21 04:44:21;;;;;;;15.43;3.17;;;10.60;87.80;;;;;;5131433;27;20649;-65
2021/05/21 04:46:46;;;;;;;18.80;4.07;;;10.60;87.30;;;;;;5131901;27;20312;-64
2021/05/21 04:49:31;;;;;;;14.33;3.53;;;10.70;87.10;;;;;;5132180;27;20360;-65
2021/05/21 04:51:58;;;;;;;14.73;3.30;;;10.70;86.90;;;;;;5131712;27;20055;-65
2021/05/21 04:54:23;;;;;;;20.63;3.43;;;10.70;86.70;;;;;;5131866;27;20303;-65
2021/05/21 04:56:49;;;;;;;13.53;2.70;;;10.70;86.30;;;;;;5131231;27;20304;-65
2021/05/21 04:59:15;;;;;;;17.70;4.20;;;10.80;86.20;;;;;;5135033;27;20479;-65
2021/05/21 05:01:40;;;;;;;18.17;3.10;;;10.70;86.00;;;;;;5136041;27;20047;-64
2021/05/21 05:04:06;;;;;;;12.93;2.67;;;10.80;85.90;;;;;;5135228;27;20054;-64
2021/05/21 05:06:32;;;;;;;21.43;4.03;;;10.70;85.70;;;;;;5135751;27;20055;-64
2021/05/21 05:08:57;;;;;;;18.23;4.33;;;10.70;85.80;;;;;;5135285;27;20051;-64
2021/05/21 05:11:23;;;;;;;19.67;3.50;;;10.80;86.30;;;;;;5135030;27;20214;-65
2021/05/21 05:13:49;;;;;;;16.87;3.40;;;11.10;86.30;;;;;;5135381;27;20381;-65
2021/05/21 05:16:14;;;;;;;15.33;3.53;;;11.50;86.10;;;;;;5135259;27;20051;-65
2021/05/21 05:18:41;;;;;;;18.77;4.03;;;12.00;85.20;;;;;;5135032;27;20496;-65
2021/05/21 05:21:07;;;;;;;17.83;3.70;;;12.60;83.40;;;;;;5135703;27;20040;-65
2021/05/21 05:23:37;;;;;;;19.93;3.73;;;12.90;80.90;;;;;;5135123;27;20051;-65
2021/05/21 05:26:02;;;;;;;16.53;3.13;;;12.80;80.70;;;;;;5134644;27;20058;-65
2021/05/21 05:28:28;;;;;;;19.43;4.57;;;12.60;80.90;;;;;;5135180;27;20047;-65
2021/05/21 05:30:54;;;;;;;17.17;3.90;;;12.40;81.30;;;;;;5134908;27;20051;-65
2021/05/21 05:33:19;;;;;;;24.67;4.60;;;12.30;81.80;;;;;;5134694;27;20073;-65
2021/05/21 05:35:45;;;;;;;18.30;4.03;;;12.30;81.80;;;;;;5134936;27;20047;-65
2021/05/21 05:38:11;;;;;;;19.97;5.13;;;12.30;81.50;;;;;;5134884;27;20126;-65
2021/05/21 05:40:38;;;;;;;18.27;3.00;;;12.20;81.30;;;;;;5133103;27;20407;-64
2021/05/21 05:43:04;;;;;;;16.23;3.60;;;12.20;81.40;;;;;;5132213;27;20095;-64
2021/05/21 05:45:30;;;;;;;17.97;3.70;;;12.20;81.40;;;;;;5133848;27;20047;-65
2021/05/21 05:47:55;;;;;;;16.63;3.50;;;12.20;81.30;;;;;;5134159;27;20483;-64
2021/05/21 05:50:21;;;;;;;18.07;3.97;;;12.20;81.40;;;;;;5133066;27;20038;-64
2021/05/21 05:52:47;;;;;;;14.37;3.00;;;12.20;81.70;;;;;;5133187;27;20043;-65
2021/05/21 05:55:13;;;;;;;13.83;3.43;;;12.20;81.60;;;;;;5133999;27;20436;-65
2021/05/21 05:57:38;;;;;;;18.27;3.40;;;12.30;82.00;;;;;;5134697;27;20043;-65
2021/05/21 06:00:06;;;;;;;20.83;3.90;;;12.30;81.50;;;;;;5134010;27;20115;-65
2021/05/21 06:02:32;;;;;;;13.73;3.30;;;12.30;81.50;;;;;;5131670;27;20857;-65
2021/05/21 06:05:02;;;;;;;22.93;3.80;;;12.30;81.30;;;;;;5134325;27;20043;-65
2021/05/21 06:07:28;;;;;;;17.17;3.70;;;12.30;81.30;;;;;;5133667;27;20078;-65
2021/05/21 06:09:54;;;;;;;16.70;3.40;;;12.20;81.40;;;;;;5133529;27;20054;-65
2021/05/21 06:12:19;;;;;;;18.50;3.33;;;12.20;81.40;;;;;;5134125;27;20040;-65
2021/05/21 06:14:45;;;;;;;19.43;3.50;;;12.20;81.70;;;;;;5133996;27;20073;-66
2021/05/21 06:17:11;;;;;;;18.90;3.77;;;12.20;81.80;;;;;;5134415;27;20491;-65
2021/05/21 06:19:37;;;;;;;17.17;4.57;;;12.30;81.60;;;;;;5134042;27;20053;-65
